Time;durP1;ratioP1;P1;durP2;ratioP2;P2;SDS_P1;SDS_P2;PMS_P1;PMS_P2;Temp;Humidity;BMP_temperature;BMP_pressure;BME280_temperature;BME280_humidity;BME280_pressure;Samples;Min_cycle;Max_cycle;Signal;HPM_P1;HPM_P2
2023/02/27 00:00:34;;;;;;;;;;;11.90;71.60;;;;;;4998116;28;92252;-37
2023/02/27 00:03:00;;;;;;;;;;;11.90;71.80;;;;;;4998355;28;92136;-37
2023/02/27 00:05:25;;;;;;;;;;;11.90;71.80;;;;;;4998310;28;92414;-38
2023/02/27 00:07:51;;;;;;;;;;;11.90;71.80;;;;;;4997781;28;93576;-37
2023/02/27 00:10:16;;;;;;;;;;;11.90;71.80;;;;;;5001269;28;92194;-38
2023/02/27 00:12:42;;;;;;;;;;;11.90;71.70;;;;;;4998212;28;94420;-37
2023/02/27 00:15:12;;;;;;;;;;;11.90;71.80;;;;;;4998511;28;92420;-38
2023/02/27 00:17:38;;;;;;;;;;;11.80;71.80;;;;;;4998583;28;92429;-37
2023/02/27 00:20:04;;;;;;;;;;;11.80;71.80;;;;;;4997025;28;94670;-37
2023/02/27 00:22:30;;;;;;;;;;;11.80;71.90;;;;;;5001139;28;92170;-38
2023/02/27 00:24:55;;;;;;;;;;;11.80;71.80;;;;;;5001862;28;92226;-38
2023/02/27 00:27:21;;;;;;;;;;;11.80;71.80;;;;;;5000495;28;94534;-37
2023/02/27 00:29:46;;;;;;;;;;;11.80;71.80;;;;;;5001575;28;92231;-37
2023/02/27 00:32:12;;;;;;;;;;;11.80;71.90;;;;;;5003881;28;93133;-37
2023/02/27 00:34:38;;;;;;;;;;;11.80;71.80;;;;;;5001555;28;92271;-38
2023/02/27 00:37:03;;;;;;;;;;;11.80;71.90;;;;;;5001946;28;93774;-38
2023/02/27 00:39:29;;;;;;;;;;;11.80;71.90;;;;;;5000918;28;94946;-37
2023/02/27 00:41:54;;;;;;;;;;;11.80;71.90;;;;;;5001052;28;92214;-38
2023/02/27 00:44:20;;;;;;;;;;;11.80;71.90;;;;;;5000722;28;94167;-37
2023/02/27 00:46:45;;;;;;;;;;;11.80;71.90;;;;;;5000664;28;94435;-38
2023/02/27 00:49:11;;;;;;;;;;;11.80;71.90;;;;;;5001181;28;92074;-37
2023/02/27 00:51:36;;;;;;;;;;;11.80;71.80;;;;;;5001096;28;93822;-37
2023/02/27 00:54:02;;;;;;;;;;;11.80;71.80;;;;;;5003660;28;94555;-37
2023/02/27 00:56:28;;;;;;;;;;;11.80;71.80;;;;;;5000879;28;93669;-37
2023/02/27 00:58:53;;;;;;;;;;;11.80;72.10;;;;;;5000533;28;94851;-38
2023/02/27 01:01:19;;;;;;;;;;;11.80;72.00;;;;;;5001504;28;91344;-38
2023/02/27 01:03:44;;;;;;;;;;;11.80;72.00;;;;;;5000970;28;93199;-37
2023/02/27 01:06:09;;;;;;;;;;;11.80;71.90;;;;;;4999945;28;94496;-37
2023/02/27 01:08:35;;;;;;;;;;;11.80;72.00;;;;;;5000369;28;93133;-37
2023/02/27 01:11:00;;;;;;;;;;;11.80;72.00;;;;;;5001038;28;93476;-37
2023/02/27 01:13:26;;;;;;;;;;;11.80;72.00;;;;;;5000197;28;94641;-38
2023/02/27 01:15:51;;;;;;;;;;;11.80;72.00;;;;;;5003883;28;92409;-38
2023/02/27 01:18:17;;;;;;;;;;;11.80;72.10;;;;;;5000307;28;93280;-37
2023/02/27 01:20:42;;;;;;;;;;;11.80;72.00;;;;;;5000631;28;92259;-37
2023/02/27 01:23:08;;;;;;;;;;;11.70;72.00;;;;;;5000703;28;93092;-37
2023/02/27 01:25:33;;;;;;;;;;;11.80;72.10;;;;;;5000919;28;92315;-38
2023/02/27 01:27:59;;;;;;;;;;;11.70;72.10;;;;;;5000069;28;92174;-38
2023/02/27 01:30:25;;;;;;;;;;;11.80;72.20;;;;;;5000872;28;92333;-37
2023/02/27 01:32:50;;;;;;;;;;;11.70;72.10;;;;;;4998395;28;95661;-38
2023/02/27 01:35:16;;;;;;;;;;;11.80;72.20;;;;;;5000472;28;92154;-37
2023/02/27 01:37:43;;;;;;;;;;;11.80;72.10;;;;;;5003178;28;92759;-37
2023/02/27 01:40:09;;;;;;;;;;;11.80;72.10;;;;;;5000395;28;92188;-38
2023/02/27 01:42:34;;;;;;;;;;;11.80;72.20;;;;;;5000636;28;92034;-38
2023/02/27 01:45:21;;;;;;;;;;;11.70;72.10;;;;;;4999755;28;94416;-38
2023/02/27 01:47:48;;;;;;;;;;;11.80;72.10;;;;;;5000569;28;92082;-38
2023/02/27 01:50:15;;;;;;;;;;;11.70;72.10;;;;;;5000499;28;93905;-37
2023/02/27 01:52:41;;;;;;;;;;;11.70;72.20;;;;;;4999870;28;94666;-38
2023/02/27 01:55:08;;;;;;;;;;;11.70;72.20;;;;;;4999939;28;92220;-38
2023/02/27 01:57:34;;;;;;;;;;;11.70;72.20;;;;;;4999642;28;93832;-37
2023/02/27 01:59:59;;;;;;;;;;;11.70;72.10;;;;;;5002528;28;93701;-38
2023/02/27 02:02:32;;;;;;;;;;;11.70;72.20;;;;;;5000463;28;92462;-37
2023/02/27 02:04:57;;;;;;;;;;;11.70;72.20;;;;;;4999582;28;93836;-38
2023/02/27 02:07:24;;;;;;;;;;;11.70;72.40;;;;;;4999562;28;92035;-38
2023/02/27 02:09:53;;;;;;;;;;;11.70;72.40;;;;;;4999834;28;94006;-39
2023/02/27 02:12:21;;;;;;;;;;;11.70;72.40;;;;;;4999446;28;94575;-39
2023/02/27 02:14:46;;;;;;;;;;;11.70;72.50;;;;;;5000423;28;91424;-39
2023/02/27 02:17:12;;;;;;;;;;;11.70;72.50;;;;;;4999806;28;92177;-39
2023/02/27 02:19:40;;;;;;;;;;;11.70;72.60;;;;;;5002309;28;94260;-38
2023/02/27 02:22:19;;;;;;;;;;;11.70;72.70;;;;;;4999113;28;93901;-39
2023/02/27 02:25:03;;;;;;;;;;;11.70;72.70;;;;;;4999076;28;94640;-39
2023/02/27 02:27:43;;;;;;;;;;;11.70;72.60;;;;;;4999470;28;92267;-39
2023/02/27 02:30:27;;;;;;;;;;;11.70;72.70;;;;;;4999441;28;94159;-39
2023/02/27 02:33:11;;;;;;;;;;;11.60;72.60;;;;;;4997826;28;96261;-39
2023/02/27 02:35:43;;;;;;;;;;;11.70;72.70;;;;;;4999526;28;92270;-39
2023/02/27 02:38:20;;;;;;;;;;;11.70;72.50;;;;;;4999681;28;93801;-39
2023/02/27 02:40:55;;;;;;;;;;;11.70;72.70;;;;;;4999700;28;92255;-38
2023/02/27 02:43:49;;;;;;;;;;;11.60;72.60;;;;;;5002539;28;92632;-39
2023/02/27 02:46:20;;;;;;;;;;;11.70;72.50;;;;;;4989320;28;93179;-39
2023/02/27 02:48:59;;;;;;;;;;;11.60;72.50;;;;;;4998736;28;92994;-39
2023/02/27 02:51:30;;;;;;;;;;;11.60;72.30;;;;;;4999246;28;94967;-39
2023/02/27 02:54:28;;;;;;;;;;;11.60;72.70;;;;;;4998713;28;94584;-39
2023/02/27 02:57:03;;;;;;;;;;;11.60;72.50;;;;;;4975950;28;92177;-39
2023/02/27 02:59:32;;;;;;;;;;;11.60;72.40;;;;;;4999574;28;92473;-39
2023/02/27 03:02:10;;;;;;;;;;;11.60;72.40;;;;;;4998440;28;94846;-39
2023/02/27 03:04:48;;;;;;;;;;;11.60;72.70;;;;;;4999218;28;92175;-39
2023/02/27 03:07:23;;;;;;;;;;;11.60;72.70;;;;;;5001884;28;93814;-39
2023/02/27 03:09:52;;;;;;;;;;;11.50;72.40;;;;;;4999149;28;91940;-39
2023/02/27 03:12:20;;;;;;;;;;;11.50;72.70;;;;;;4998947;28;93816;-39
2023/02/27 03:14:49;;;;;;;;;;;11.50;72.60;;;;;;4997857;28;95448;-40
2023/02/27 03:17:16;;;;;;;;;;;11.50;72.50;;;;;;4998936;28;92525;-39
2023/02/27 03:19:46;;;;;;;;;;;11.50;72.60;;;;;;4999071;28;94104;-39
2023/02/27 03:22:17;;;;;;;;;;;11.40;72.60;;;;;;4998380;28;94726;-39
2023/02/27 03:24:49;;;;;;;;;;;11.40;72.80;;;;;;4999017;28;92206;-39
2023/02/27 03:27:16;;;;;;;;;;;11.40;72.50;;;;;;4998813;28;92446;-39
2023/02/27 03:30:14;;;;;;;;;;;11.40;72.60;;;;;;5001390;28;94650;-39
2023/02/27 03:32:49;;;;;;;;;;;11.50;72.50;;;;;;4976081;28;92873;-39
2023/02/27 03:35:15;;;;;;;;;;;11.40;72.70;;;;;;4998314;28;94768;-39
2023/02/27 03:37:49;;;;;;;;;;;11.40;72.60;;;;;;4998794;28;92750;-38
2023/02/27 03:40:14;;;;;;;;;;;11.40;72.60;;;;;;4998385;28;93024;-39
2023/02/27 03:42:56;;;;;;;;;;;11.40;72.60;;;;;;4998491;28;93048;-39
2023/02/27 03:45:31;;;;;;;;;;;11.40;72.70;;;;;;4998826;28;92040;-38
2023/02/27 03:47:57;;;;;;;;;;;11.40;72.50;;;;;;4998811;28;91928;-38
2023/02/27 03:50:22;;;;;;;;;;;11.40;72.50;;;;;;4998376;28;92158;-38
2023/02/27 03:52:48;;;;;;;;;;;11.40;72.80;;;;;;5001648;28;92621;-39
2023/02/27 03:55:16;;;;;;;;;;;11.40;72.60;;;;;;4997934;28;95148;-39
2023/02/27 03:57:42;;;;;;;;;;;11.40;72.50;;;;;;5002449;28;91334;-38
2023/02/27 04:00:10;;;;;;;;;;;11.30;72.60;;;;;;5002222;28;92048;-39
2023/02/27 04:02:36;;;;;;;;;;;11.30;72.60;;;;;;5001227;28;94524;-39
2023/02/27 04:05:02;;;;;;;;;;;11.30;72.70;;;;;;5001208;28;93119;-39
2023/02/27 04:07:42;;;;;;;;;;;11.30;72.60;;;;;;5001468;28;94739;-39
2023/02/27 04:10:19;;;;;;;;;;;11.30;72.60;;;;;;5001330;28;94389;-38
2023/02/27 04:12:51;;;;;;;;;;;11.30;72.70;;;;;;5001816;28;92393;-39
2023/02/27 04:15:26;;;;;;;;;;;11.30;72.60;;;;;;5004292;28;93893;-38
2023/02/27 04:17:58;;;;;;;;;;;11.30;72.60;;;;;;5001779;28;92220;-39
2023/02/27 04:20:24;;;;;;;;;;;11.30;72.50;;;;;;5001678;28;93790;-39
2023/02/27 04:22:57;;;;;;;;;;;11.30;72.40;;;;;;5001637;28;93815;-38
2023/02/27 04:25:22;;;;;;;;;;;11.30;72.60;;;;;;5001481;28;92168;-39
2023/02/27 04:28:00;;;;;;;;;;;11.30;72.40;;;;;;5001545;28;92314;-39
2023/02/27 04:30:31;;;;;;;;;;;11.30;72.70;;;;;;5000123;28;96036;-39
2023/02/27 04:33:02;;;;;;;;;;;11.30;72.50;;;;;;5001490;28;92135;-39
2023/02/27 04:35:37;;;;;;;;;;;11.30;72.50;;;;;;5004190;28;92303;-38
2023/02/27 04:38:02;;;;;;;;;;;11.30;72.30;;;;;;5001267;28;92169;-39
2023/02/27 04:40:46;;;;;;;;;;;11.30;72.50;;;;;;5001384;28;93923;-39
2023/02/27 04:43:13;;;;;;;;;;;11.30;72.40;;;;;;5000705;28;94573;-39
2023/02/27 04:45:40;;;;;;;;;;;11.30;72.40;;;;;;5001457;28;92340;-38
2023/02/27 04:48:09;;;;;;;;;;;11.30;72.60;;;;;;5002001;28;93748;-39
2023/02/27 04:50:42;;;;;;;;;;;11.30;72.40;;;;;;5000516;28;93104;-39
2023/02/27 04:53:13;;;;;;;;;;;11.30;72.50;;;;;;5001119;28;92143;-39
2023/02/27 04:55:42;;;;;;;;;;;11.30;72.40;;;;;;5000651;28;93770;-38
2023/02/27 04:58:13;;;;;;;;;;;11.30;72.40;;;;;;5003750;28;94504;-38
2023/02/27 05:00:40;;;;;;;;;;;11.30;72.60;;;;;;5000990;28;93794;-38
2023/02/27 05:03:15;;;;;;;;;;;11.30;72.50;;;;;;5000455;28;94748;-39
2023/02/27 05:05:42;;;;;;;;;;;11.20;72.40;;;;;;5000551;28;92056;-39
2023/02/27 05:08:26;;;;;;;;;;;11.20;72.40;;;;;;4999849;28;94284;-38
2023/02/27 05:11:08;;;;;;;;;;;11.20;72.30;;;;;;5000224;28;94533;-38
2023/02/27 05:13:45;;;;;;;;;;;11.20;72.50;;;;;;5001053;28;91434;-39
2023/02/27 05:16:31;;;;;;;;;;;11.20;72.50;;;;;;5001342;28;92923;-39
2023/02/27 05:18:58;;;;;;;;;;;11.20;72.50;;;;;;5000107;28;94327;-39
2023/02/27 05:21:29;;;;;;;;;;;11.20;72.50;;;;;;5003170;28;93100;-39
2023/02/27 05:23:54;;;;;;;;;;;11.20;72.40;;;;;;5000023;28;94647;-39
2023/02/27 05:26:35;;;;;;;;;;;11.20;72.50;;;;;;5000306;28;92488;-39
2023/02/27 05:29:04;;;;;;;;;;;11.20;72.50;;;;;;5000649;28;93830;-39
2023/02/27 05:31:50;;;;;;;;;;;11.20;72.40;;;;;;4999891;28;93500;-39
2023/02/27 05:34:28;;;;;;;;;;;11.20;72.40;;;;;;5000217;28;92143;-39
2023/02/27 05:37:12;;;;;;;;;;;11.20;72.40;;;;;;5000519;28;92424;-38
2023/02/27 05:39:39;;;;;;;;;;;11.20;72.60;;;;;;5000575;28;92605;-38
2023/02/27 05:42:08;;;;;;;;;;;11.10;72.50;;;;;;5000380;28;92187;-39
2023/02/27 05:44:37;;;;;;;;;;;11.20;72.50;;;;;;5002829;28;93797;-38
2023/02/27 05:47:10;;;;;;;;;;;11.10;72.50;;;;;;4999460;28;93098;-39
2023/02/27 05:49:38;;;;;;;;;;;11.10;72.60;;;;;;5000257;28;93404;-38
2023/02/27 05:52:06;;;;;;;;;;;11.10;72.40;;;;;;4999637;28;94378;-39
2023/02/27 05:54:31;;;;;;;;;;;11.10;72.50;;;;;;5000206;28;92479;-38
2023/02/27 05:56:58;;;;;;;;;;;11.10;72.50;;;;;;5000077;28;93938;-39
2023/02/27 05:59:23;;;;;;;;;;;11.10;72.50;;;;;;4999694;28;94488;-38
2023/02/27 06:01:49;;;;;;;;;;;11.10;72.40;;;;;;4999818;28;92263;-39
2023/02/27 06:04:15;;;;;;;;;;;11.10;72.50;;;;;;5000511;28;93908;-38
2023/02/27 06:06:40;;;;;;;;;;;11.10;72.40;;;;;;5002257;28;94522;-38
2023/02/27 06:09:07;;;;;;;;;;;11.10;72.40;;;;;;5000027;28;93772;-38
2023/02/27 06:11:32;;;;;;;;;;;11.10;72.50;;;;;;4998718;28;95705;-38
2023/02/27 06:13:57;;;;;;;;;;;11.10;72.50;;;;;;5000131;28;92136;-39
2023/02/27 06:16:23;;;;;;;;;;;11.10;72.50;;;;;;4999631;28;93913;-39
2023/02/27 06:18:48;;;;;;;;;;;11.10;72.50;;;;;;4999026;28;94587;-39
2023/02/27 06:21:14;;;;;;;;;;;11.10;72.50;;;;;;5000095;28;92244;-39
2023/02/27 06:23:39;;;;;;;;;;;11.00;72.40;;;;;;4999840;28;92739;-38
2023/02/27 06:26:05;;;;;;;;;;;11.10;72.50;;;;;;4999354;28;94271;-39
2023/02/27 06:28:30;;;;;;;;;;;11.10;72.50;;;;;;5003072;28;91340;-39
2023/02/27 06:30:56;;;;;;;;;;;11.10;72.50;;;;;;4998918;28;94623;-39
2023/02/27 06:33:22;;;;;;;;;;;11.00;72.40;;;;;;4999375;28;92176;-38
2023/02/27 06:35:48;;;;;;;;;;;11.00;72.50;;;;;;4998954;28;94121;-38
2023/02/27 06:38:14;;;;;;;;;;;11.10;72.50;;;;;;4999118;28;94491;-38
2023/02/27 06:40:39;;;;;;;;;;;11.00;72.50;;;;;;4999797;28;92125;-39
2023/02/27 06:43:05;;;;;;;;;;;11.00;72.50;;;;;;4999490;28;93825;-39
2023/02/27 06:45:30;;;;;;;;;;;11.00;72.50;;;;;;4998927;28;94825;-39
2023/02/27 06:47:56;;;;;;;;;;;11.10;72.50;;;;;;5002715;28;92127;-39
2023/02/27 06:50:21;;;;;;;;;;;11.00;72.40;;;;;;4998762;28;94704;-39
2023/02/27 06:52:47;;;;;;;;;;;11.00;72.40;;;;;;4999989;28;91046;-38
2023/02/27 06:55:12;;;;;;;;;;;11.00;72.50;;;;;;4999518;28;93518;-39
2023/02/27 06:57:38;;;;;;;;;;;11.00;72.40;;;;;;4998640;28;94602;-39
2023/02/27 07:00:05;;;;;;;;;;;11.00;72.40;;;;;;4998569;28;93046;-39
2023/02/27 07:02:31;;;;;;;;;;;11.00;72.50;;;;;;4999060;28;94673;-38
2023/02/27 07:04:56;;;;;;;;;;;11.00;72.60;;;;;;4999072;28;93140;-38
2023/02/27 07:07:22;;;;;;;;;;;11.00;72.40;;;;;;4998975;28;92147;-38
2023/02/27 07:09:48;;;;;;;;;;;11.00;72.50;;;;;;5001692;28;94157;-38
2023/02/27 07:12:13;;;;;;;;;;;11.00;72.50;;;;;;4999113;28;92358;-38
2023/02/27 07:14:39;;;;;;;;;;;10.90;72.40;;;;;;4999155;28;93859;-39
2023/02/27 07:17:04;;;;;;;;;;;11.00;72.50;;;;;;4998794;28;94092;-39
2023/02/27 07:19:31;;;;;;;;;;;11.00;72.50;;;;;;4998782;28;92060;-39
2023/02/27 07:21:56;;;;;;;;;;;11.00;72.40;;;;;;4999075;28;94095;-39
2023/02/27 07:24:22;;;;;;;;;;;10.90;72.40;;;;;;4997599;28;95581;-39
2023/02/27 07:26:47;;;;;;;;;;;10.90;72.40;;;;;;4998766;28;92132;-39
2023/02/27 07:29:13;;;;;;;;;;;10.90;72.40;;;;;;4999008;28;92421;-39
2023/02/27 07:31:39;;;;;;;;;;;10.90;72.40;;;;;;5003297;28;94345;-38
2023/02/27 07:34:05;;;;;;;;;;;10.90;72.40;;;;;;5002527;28;93737;-38
2023/02/27 07:36:31;;;;;;;;;;;10.90;72.50;;;;;;5001699;28;94616;-39
2023/02/27 07:38:57;;;;;;;;;;;10.90;72.30;;;;;;5002372;28;92226;-38
2023/02/27 07:41:22;;;;;;;;;;;11.00;72.40;;;;;;5002671;28;93808;-39
2023/02/27 07:43:48;;;;;;;;;;;10.90;72.30;;;;;;5001758;28;94253;-39
2023/02/27 07:46:13;;;;;;;;;;;10.90;72.30;;;;;;5002044;28;92261;-38
2023/02/27 07:48:39;;;;;;;;;;;10.90;72.30;;;;;;5001476;28;93756;-38
2023/02/27 07:51:05;;;;;;;;;;;10.90;72.30;;;;;;5001332;28;94532;-38
2023/02/27 07:53:30;;;;;;;;;;;10.90;72.30;;;;;;5005068;28;92321;-38
2023/02/27 07:55:56;;;;;;;;;;;10.90;72.30;;;;;;5001558;28;95079;-38
2023/02/27 07:58:21;;;;;;;;;;;10.90;72.30;;;;;;5002041;28;92144;-39
2023/02/27 08:00:47;;;;;;;;;;;10.90;72.20;;;;;;5001879;28;93993;-38
2023/02/27 08:03:12;;;;;;;;;;;10.90;72.30;;;;;;5001466;28;94740;-39
2023/02/27 08:05:38;;;;;;;;;;;10.90;72.40;;;;;;5001669;28;91468;-39
2023/02/27 08:08:03;;;;;;;;;;;10.80;72.40;;;;;;5002175;28;92097;-39
2023/02/27 08:10:29;;;;;;;;;;;10.90;72.40;;;;;;5001319;28;93073;-39
2023/02/27 08:12:54;;;;;;;;;;;10.90;72.20;;;;;;5001234;28;93087;-39
2023/02/27 08:15:20;;;;;;;;;;;10.90;72.30;;;;;;5004414;28;94895;-39
2023/02/27 08:17:45;;;;;;;;;;;10.80;72.30;;;;;;5001855;28;92271;-39
2023/02/27 08:20:12;;;;;;;;;;;10.80;72.40;;;;;;5001690;28;93955;-38
2023/02/27 08:22:38;;;;;;;;;;;10.80;72.50;;;;;;5001158;28;94472;-39
2023/02/27 08:25:06;;;;;;;;;;;10.80;72.50;;;;;;5001662;28;92213;-39
2023/02/27 08:27:32;;;;;;;;;;;10.80;72.50;;;;;;5001349;28;94138;-39
2023/02/27 08:29:58;;;;;;;;;;;10.80;72.50;;;;;;5001651;28;93776;-38
2023/02/27 08:32:23;;;;;;;;;;;10.80;72.50;;;;;;5001198;28;92227;-38
2023/02/27 08:34:49;;;;;;;;;;;10.80;72.40;;;;;;5004179;28;92564;-39
2023/02/27 08:37:14;;;;;;;;;;;10.80;72.30;;;;;;5000694;28;93074;-39
2023/02/27 08:39:40;;;;;;;;;;;10.80;72.50;;;;;;5001424;28;93947;-39
2023/02/27 08:42:06;;;;;;;;;;;10.90;72.40;;;;;;5000663;28;94669;-38
2023/02/27 08:44:31;;;;;;;;;;;10.90;72.40;;;;;;5001308;28;92175;-38
2023/02/27 08:46:57;;;;;;;;;;;10.90;72.40;;;;;;5001000;28;94151;-38
2023/02/27 08:49:24;;;;;;;;;;;10.80;72.40;;;;;;5001055;28;93053;-38
2023/02/27 08:51:50;;;;;;;;;;;10.90;72.40;;;;;;5001137;28;92219;-39
2023/02/27 08:54:15;;;;;;;;;;;10.80;72.40;;;;;;5001462;28;94418;-37
2023/02/27 08:56:41;;;;;;;;;;;10.90;72.40;;;;;;5003626;28;94645;-38
2023/02/27 08:59:06;;;;;;;;;;;10.90;72.30;;;;;;5001092;28;94158;-38
2023/02/27 09:01:33;;;;;;;;;;;10.90;72.40;;;;;;4999558;28;95773;-39
2023/02/27 09:04:00;;;;;;;;;;;10.90;72.40;;;;;;5000800;28;92008;-38
2023/02/27 09:06:25;;;;;;;;;;;10.90;72.40;;;;;;5000734;28;93786;-38
2023/02/27 09:08:50;;;;;;;;;;;10.90;72.50;;;;;;5015799;28;96184;-39
2023/02/27 09:11:16;;;;;;;;;;;10.90;72.50;;;;;;5000907;28;92164;-38
2023/02/27 09:13:41;;;;;;;;;;;10.80;72.50;;;;;;5001141;28;92112;-38
2023/02/27 09:16:07;;;;;;;;;;;10.80;72.50;;;;;;5000274;28;94601;-38
2023/02/27 09:18:33;;;;;;;;;;;10.80;72.40;;;;;;5004408;28;91293;-38
2023/02/27 09:20:58;;;;;;;;;;;10.80;72.50;;;;;;5000148;28;94607;-39
2023/02/27 09:23:24;;;;;;;;;;;10.80;72.60;;;;;;5000747;28;92132;-38
2023/02/27 09:25:49;;;;;;;;;;;10.80;72.50;;;;;;5000156;28;94197;-38
2023/02/27 09:28:15;;;;;;;;;;;10.90;72.60;;;;;;4999773;28;94480;-38
2023/02/27 09:30:40;;;;;;;;;;;10.90;72.60;;;;;;5000456;28;92206;-38
2023/02/27 09:33:06;;;;;;;;;;;10.90;72.60;;;;;;5000560;28;92357;-38
2023/02/27 09:35:32;;;;;;;;;;;10.80;72.70;;;;;;5000038;28;94664;-38
2023/02/27 09:37:57;;;;;;;;;;;10.80;72.70;;;;;;5000488;28;92030;-38
2023/02/27 09:40:28;;;;;;;;;;;10.80;73.30;;;;;;5002965;28;93962;-39
2023/02/27 09:42:56;;;;;;;;;;;10.80;72.80;;;;;;5001063;28;91250;-38
2023/02/27 09:45:27;;;;;;;;;;;10.90;72.80;;;;;;5000216;28;93191;-38
2023/02/27 09:48:04;;;;;;;;;;;10.80;72.80;;;;;;4999777;28;94619;-38
2023/02/27 09:50:38;;;;;;;;;;;10.80;72.90;;;;;;4999833;28;92988;-39
2023/02/27 09:53:11;;;;;;;;;;;10.80;72.90;;;;;;4999693;28;94843;-38
2023/02/27 09:55:38;;;;;;;;;;;10.80;72.90;;;;;;4999641;28;94491;-38
2023/02/27 09:58:22;;;;;;;;;;;10.90;72.90;;;;;;5000082;28;92180;-38
2023/02/27 10:00:50;;;;;;;;;;;10.90;72.90;;;;;;5000087;28;93834;-38
2023/02/27 10:03:33;;;;;;;;;;;10.90;72.90;;;;;;5002793;28;93149;-38
2023/02/27 10:06:20;;;;;;;;;;;10.90;72.90;;;;;;4999885;28;93910;-38
2023/02/27 10:09:06;;;;;;;;;;;10.90;73.00;;;;;;5000138;28;92705;-38
2023/02/27 10:11:44;;;;;;;;;;;10.90;72.90;;;;;;4999177;28;92178;-38
2023/02/27 10:14:09;;;;;;;;;;;10.90;73.00;;;;;;4999842;28;93945;-38
2023/02/27 10:16:35;;;;;;;;;;;10.90;73.00;;;;;;4998884;28;93048;-38
2023/02/27 10:19:03;;;;;;;;;;;10.90;72.90;;;;;;4999845;28;92187;-39
2023/02/27 10:21:34;;;;;;;;;;;10.90;72.90;;;;;;4999869;28;93958;-39
2023/02/27 10:24:15;;;;;;;;;;;10.90;72.90;;;;;;4999323;28;94840;-38
2023/02/27 10:26:41;;;;;;;;;;;11.00;73.00;;;;;;5003225;28;92173;-38
2023/02/27 10:29:29;;;;;;;;;;;11.00;73.10;;;;;;4999029;28;94244;-38
2023/02/27 10:31:59;;;;;;;;;;;11.00;73.10;;;;;;4993942;28;92291;-38
2023/02/27 10:34:26;;;;;;;;;;;11.00;73.20;;;;;;5000188;28;93826;-38
2023/02/27 10:36:52;;;;;;;;;;;10.90;73.30;;;;;;4999030;28;93834;-39
2023/02/27 10:39:19;;;;;;;;;;;11.00;73.10;;;;;;4999435;28;92144;-39
2023/02/27 10:41:45;;;;;;;;;;;11.00;73.20;;;;;;4998874;28;93725;-38
2023/02/27 10:44:13;;;;;;;;;;;11.00;73.10;;;;;;4999164;28;92939;-39
2023/02/27 10:46:39;;;;;;;;;;;11.00;73.30;;;;;;5002409;28;92191;-39
2023/02/27 10:49:15;;;;;;;;;;;11.00;73.20;;;;;;4998837;28;94621;-38
2023/02/27 10:51:43;;;;;;;;;;;11.00;73.70;;;;;;4999484;28;92185;-38
2023/02/27 10:54:14;;;;;;;;;;;11.00;73.30;;;;;;4999419;28;93694;-38
2023/02/27 10:56:42;;;;;;;;;;;11.00;73.40;;;;;;4998554;28;94385;-38
2023/02/27 10:59:16;;;;;;;;;;;11.10;73.30;;;;;;4999465;28;91251;-38
2023/02/27 11:01:43;;;;;;;;;;;11.10;73.20;;;;;;4999346;28;92957;-38
2023/02/27 11:04:10;;;;;;;;;;;11.00;73.20;;;;;;4998747;28;95141;-38
2023/02/27 11:06:35;;;;;;;;;;;11.10;73.30;;;;;;4997222;28;93122;-38
2023/02/27 11:09:09;;;;;;;;;;;11.10;73.20;;;;;;5001812;28;94694;-38
2023/02/27 11:11:34;;;;;;;;;;;11.00;73.20;;;;;;4999088;28;92661;-38
2023/02/27 11:14:14;;;;;;;;;;;11.10;73.20;;;;;;4999098;28;93959;-38
2023/02/27 11:16:49;;;;;;;;;;;11.10;73.20;;;;;;4998708;28;93378;-38
2023/02/27 11:19:35;;;;;;;;;;;11.10;73.20;;;;;;4998906;28;92118;-38
2023/02/27 11:22:14;;;;;;;;;;;11.10;73.10;;;;;;4998843;28;92361;-38
2023/02/27 11:24:40;;;;;;;;;;;11.10;73.00;;;;;;4998917;28;93945;-38
2023/02/27 11:27:19;;;;;;;;;;;11.10;73.10;;;;;;4998472;28;92106;-38
2023/02/27 11:29:57;;;;;;;;;;;11.10;73.00;;;;;;4998755;28;93751;-38
2023/02/27 11:32:24;;;;;;;;;;;11.10;73.00;;;;;;5000615;28;95526;-38
2023/02/27 11:34:50;;;;;;;;;;;11.10;73.20;;;;;;4998850;28;92565;-38
2023/02/27 11:37:22;;;;;;;;;;;11.10;73.10;;;;;;4998246;28;94762;-38
2023/02/27 11:39:49;;;;;;;;;;;11.20;73.00;;;;;;4999007;28;92248;-39
2023/02/27 11:42:16;;;;;;;;;;;11.10;73.00;;;;;;4998970;28;92420;-39
2023/02/27 11:44:54;;;;;;;;;;;11.20;73.00;;;;;;4997955;28;94389;-38
2023/02/27 11:47:22;;;;;;;;;;;11.20;73.10;;;;;;4998738;28;91942;-38
2023/02/27 11:50:04;;;;;;;;;;;11.20;73.10;;;;;;4999162;28;93600;-39
2023/02/27 11:52:42;;;;;;;;;;;11.20;73.10;;;;;;4998147;28;94616;-38
2023/02/27 11:55:14;;;;;;;;;;;11.20;73.20;;;;;;5001323;28;92188;-38
2023/02/27 11:57:42;;;;;;;;;;;11.20;73.20;;;;;;4997421;28;95609;-37
2023/02/27 12:00:27;;;;;;;;;;;11.20;73.20;;;;;;4998348;28;92186;-38
2023/02/27 12:02:59;;;;;;;;;;;11.20;73.10;;;;;;4998482;28;93832;-38
2023/02/27 12:05:26;;;;;;;;;;;11.20;73.10;;;;;;4997705;28;94585;-38
2023/02/27 12:08:01;;;;;;;;;;;11.20;73.10;;;;;;4998472;28;92343;-38
2023/02/27 12:10:28;;;;;;;;;;;11.20;73.00;;;;;;4998381;28;93880;-38
2023/02/27 12:13:12;;;;;;;;;;;11.30;73.10;;;;;;4997589;28;94261;-38
2023/02/27 12:15:44;;;;;;;;;;;11.20;73.00;;;;;;4998770;28;91424;-38
2023/02/27 12:18:09;;;;;;;;;;;11.30;73.10;;;;;;5003451;28;93540;-38
2023/02/27 12:20:38;;;;;;;;;;;11.30;73.10;;;;;;5002025;28;92199;-38
2023/02/27 12:23:09;;;;;;;;;;;11.30;73.10;;;;;;5001069;28;94104;-37
2023/02/27 12:25:41;;;;;;;;;;;11.30;73.10;;;;;;5001136;28;94716;-37
2023/02/27 12:28:25;;;;;;;;;;;11.30;73.00;;;;;;5001482;28;92201;-38
2023/02/27 12:30:51;;;;;;;;;;;11.30;73.00;;;;;;5001446;28;95723;-37
2023/02/27 12:33:28;;;;;;;;;;;11.30;73.00;;;;;;5000777;28;93148;-38
2023/02/27 12:36:01;;;;;;;;;;;11.30;73.00;;;;;;5001294;28;92171;-38
2023/02/27 12:38:26;;;;;;;;;;;11.30;73.00;;;;;;5001639;28;92443;-38
2023/02/27 12:40:58;;;;;;;;;;;11.30;73.00;;;;;;5004328;28;92818;-38
2023/02/27 12:43:26;;;;;;;;;;;11.30;73.10;;;;;;5001412;28;92167;-38
2023/02/27 12:46:00;;;;;;;;;;;11.30;73.00;;;;;;5000907;28;93047;-37
2023/02/27 12:48:31;;;;;;;;;;;11.30;73.00;;;;;;5001013;28;93029;-38
2023/02/27 12:51:02;;;;;;;;;;;11.30;73.00;;;;;;5001139;28;94570;-38
2023/02/27 12:53:51;;;;;;;;;;;11.30;73.00;;;;;;5000723;28;94650;-38
2023/02/27 12:56:18;;;;;;;;;;;11.30;73.00;;;;;;4981051;28;92139;-38
2023/02/27 12:58:55;;;;;;;;;;;11.30;72.90;;;;;;5001157;28;93843;-37
2023/02/27 13:01:31;;;;;;;;;;;11.30;73.00;;;;;;5003714;28;94456;-39
2023/02/27 13:04:02;;;;;;;;;;;11.40;73.00;;;;;;5001047;28;93679;-38
2023/02/27 13:06:40;;;;;;;;;;;11.40;73.00;;;;;;5000302;28;94492;-38
2023/02/27 13:09:26;;;;;;;;;;;11.30;73.00;;;;;;5001217;28;92025;-38
2023/02/27 13:12:10;;;;;;;;;;;11.30;72.90;;;;;;5000889;28;94289;-37
2023/02/27 13:14:46;;;;;;;;;;;11.30;72.90;;;;;;4999406;28;95597;-38
2023/02/27 13:17:24;;;;;;;;;;;11.30;72.90;;;;;;5001036;28;92140;-37
2023/02/27 13:19:51;;;;;;;;;;;11.30;73.00;;;;;;5000671;28;93835;-38
2023/02/27 13:22:38;;;;;;;;;;;11.30;72.90;;;;;;5000292;28;94482;-38
2023/02/27 13:25:08;;;;;;;;;;;11.40;73.00;;;;;;5003623;28;92187;-38
2023/02/27 13:27:36;;;;;;;;;;;11.30;73.00;;;;;;4999726;28;94836;-38
2023/02/27 13:30:01;;;;;;;;;;;11.30;73.00;;;;;;4999861;28;92201;-38
2023/02/27 13:32:39;;;;;;;;;;;11.40;73.00;;;;;;5000842;28;93727;-38
2023/02/27 13:35:20;;;;;;;;;;;11.30;73.00;;;;;;5000171;28;92932;-38
2023/02/27 13:37:53;;;;;;;;;;;11.40;73.00;;;;;;5000436;28;92107;-37
2023/02/27 13:40:26;;;;;;;;;;;11.40;73.00;;;;;;4999962;28;93925;-38
2023/02/27 13:42:54;;;;;;;;;;;11.40;73.20;;;;;;4999899;28;94478;-38
2023/02/27 13:45:38;;;;;;;;;;;11.30;73.40;;;;;;5000450;28;92094;-37
2023/02/27 13:48:23;;;;;;;;;;;11.40;73.50;;;;;;5002983;28;92166;-38
2023/02/27 13:50:50;;;;;;;;;;;11.30;73.40;;;;;;5000019;28;92090;-38
2023/02/27 13:53:16;;;;;;;;;;;11.30;73.50;;;;;;5000192;28;93775;-37
2023/02/27 13:55:42;;;;;;;;;;;11.30;73.60;;;;;;4999714;28;94380;-38
2023/02/27 13:58:13;;;;;;;;;;;11.30;73.60;;;;;;5000701;28;91550;-38
2023/02/27 14:00:39;;;;;;;;;;;11.30;73.50;;;;;;5000111;28;92887;-38
2023/02/27 14:03:16;;;;;;;;;;;11.30;73.40;;;;;;4999812;28;93120;-38
2023/02/27 14:05:43;;;;;;;;;;;11.30;73.50;;;;;;4999193;28;92989;-37
2023/02/27 14:08:19;;;;;;;;;;;11.30;73.20;;;;;;5000028;28;94793;-38
2023/02/27 14:11:03;;;;;;;;;;;11.30;73.20;;;;;;5002443;28;94445;-38
2023/02/27 14:13:44;;;;;;;;;;;11.30;73.10;;;;;;4999882;28;93675;-38
2023/02/27 14:16:29;;;;;;;;;;;11.30;73.40;;;;;;4999497;28;94707;-38
2023/02/27 14:18:57;;;;;;;;;;;11.30;73.20;;;;;;5000028;28;92043;-39
2023/02/27 14:21:49;;;;;;;;;;;11.30;73.10;;;;;;4999741;28;94212;-38
2023/02/27 14:24:15;;;;;;;;;;;11.30;73.10;;;;;;4982864;28;93379;-39
2023/02/27 14:26:44;;;;;;;;;;;11.30;73.10;;;;;;4999819;28;92088;-38
2023/02/27 14:29:15;;;;;;;;;;;11.30;73.00;;;;;;4999444;28;93755;-38
2023/02/27 14:31:42;;;;;;;;;;;11.30;73.10;;;;;;4999114;28;93895;-38